createdAt,value
2023-05-21T00:01:50.055Z,72.00
2023-05-21T00:04:18.038Z,72.10
2023-05-21T00:06:45.959Z,72.00
2023-05-21T00:09:13.897Z,72.00
2023-05-21T00:11:41.884Z,72.10
2023-05-21T00:14:11.146Z,72.10
2023-05-21T00:16:39.112Z,72.10
2023-05-21T00:19:08.157Z,72.00
2023-05-21T00:21:36.185Z,72.10
2023-05-21T00:24:04.189Z,72.10
2023-05-21T00:26:32.125Z,72.10
2023-05-21T00:29:01.213Z,72.10
2023-05-21T00:31:30.589Z,72.10
2023-05-21T00:33:58.602Z,72.10
2023-05-21T00:36:26.590Z,72.10
2023-05-21T00:38:54.568Z,72.10
2023-05-21T00:41:25.503Z,72.00
2023-05-21T00:43:53.831Z,72.00
2023-05-21T00:46:22.282Z,72.10
2023-05-21T00:48:51.651Z,72.00
2023-05-21T00:51:21.846Z,72.00
2023-05-21T00:53:51.395Z,72.00
2023-05-21T00:56:19.832Z,72.00
2023-05-21T00:58:47.972Z,71.90
2023-05-21T01:01:16.122Z,72.00
2023-05-21T01:03:44.365Z,72.00
2023-05-21T01:06:14.336Z,72.10
2023-05-21T01:08:42.285Z,72.10
2023-05-21T01:11:10.531Z,72.00
2023-05-21T01:13:40.851Z,72.00
2023-05-21T01:16:09.293Z,72.10
2023-05-21T01:18:38.520Z,72.00
2023-05-21T01:21:07.345Z,72.00
2023-05-21T01:23:36.732Z,72.00
2023-05-21T01:26:04.832Z,71.90
2023-05-21T01:28:32.995Z,71.90
2023-05-21T01:31:01.689Z,71.90
2023-05-21T01:33:39.962Z,72.00
2023-05-21T01:36:09.853Z,72.00
2023-05-21T01:38:41.633Z,71.90
2023-05-21T01:41:11.863Z,71.90
2023-05-21T01:43:40.393Z,72.00
2023-05-21T01:46:08.977Z,72.00
2023-05-21T01:48:37.238Z,72.00
2023-05-21T01:51:06.371Z,72.00
2023-05-21T01:53:34.396Z,72.00
2023-05-21T01:56:03.792Z,72.00
2023-05-21T01:58:31.981Z,73.10
2023-05-21T02:01:00.738Z,72.00
2023-05-21T02:03:31.018Z,71.90
2023-05-21T02:05:59.229Z,72.10
2023-05-21T02:08:27.986Z,73.00
2023-05-21T02:10:56.373Z,72.00
2023-05-21T02:13:26.811Z,71.90
2023-05-21T02:15:56.217Z,71.80
2023-05-21T02:18:26.342Z,71.80
2023-05-21T02:20:54.299Z,71.90
2023-05-21T02:23:22.272Z,71.70
2023-05-21T02:25:50.430Z,71.80
2023-05-21T02:28:18.362Z,71.80
2023-05-21T02:30:47.673Z,71.80
2023-05-21T02:33:17.226Z,71.90
2023-05-21T02:35:45.495Z,71.80
2023-05-21T02:38:13.741Z,71.80
2023-05-21T02:40:41.876Z,71.80
2023-05-21T02:43:09.844Z,71.80
2023-05-21T02:45:38.044Z,71.90
2023-05-21T02:48:07.761Z,72.00
2023-05-21T02:50:40.571Z,72.00
2023-05-21T02:53:08.693Z,71.90
2023-05-21T02:55:37.382Z,72.00
2023-05-21T02:58:06.159Z,72.00
2023-05-21T03:00:34.131Z,72.10
2023-05-21T03:03:02.693Z,72.10
2023-05-21T03:05:32.248Z,72.00
2023-05-21T03:08:00.182Z,72.10
2023-05-21T03:10:28.175Z,72.10
2023-05-21T03:12:56.472Z,72.10
2023-05-21T03:15:24.784Z,72.10
2023-05-21T03:17:54.180Z,72.20
2023-05-21T03:20:22.306Z,72.10
2023-05-21T03:22:52.828Z,72.10
2023-05-21T03:25:21.508Z,72.10
2023-05-21T03:27:49.511Z,72.10
2023-05-21T03:30:38.289Z,72.10
2023-05-21T03:33:26.476Z,72.20
2023-05-21T03:35:55.501Z,72.10
2023-05-21T03:38:26.274Z,72.20
2023-05-21T03:40:55.842Z,72.10
2023-05-21T03:43:24.079Z,72.00
2023-05-21T03:45:52.238Z,72.30
2023-05-21T03:48:40.490Z,72.10
2023-05-21T03:51:09.607Z,72.10
2023-05-21T03:53:38.909Z,72.10
2023-05-21T03:56:07.283Z,72.20
2023-05-21T03:58:35.713Z,72.20
2023-05-21T04:01:04.691Z,72.40
2023-05-21T04:03:36.768Z,72.30
2023-05-21T04:06:07.092Z,72.30
2023-05-21T04:08:35.048Z,72.30
2023-05-21T04:11:04.367Z,72.30
2023-05-21T04:13:32.362Z,72.50
2023-05-21T04:16:00.525Z,72.30
2023-05-21T04:18:28.565Z,72.30
2023-05-21T04:20:56.499Z,72.30
2023-05-21T04:23:24.523Z,72.30
2023-05-21T04:25:53.965Z,72.30
2023-05-21T04:28:24.133Z,72.20
2023-05-21T04:30:52.240Z,72.30
2023-05-21T04:33:20.358Z,72.50
2023-05-21T04:35:50.327Z,72.40
2023-05-21T04:38:19.611Z,72.40
2023-05-21T04:40:48.459Z,72.40
2023-05-21T04:43:17.209Z,72.50
2023-05-21T04:45:47.380Z,72.50
2023-05-21T04:48:15.803Z,72.50
2023-05-21T04:50:43.804Z,72.50
2023-05-21T04:53:12.239Z,72.50
2023-05-21T04:55:41.143Z,72.50
2023-05-21T04:58:10.936Z,72.50
2023-05-21T05:00:39.239Z,72.50
2023-05-21T05:03:08.947Z,72.50
2023-05-21T05:05:37.344Z,72.60
2023-05-21T05:08:06.857Z,72.80
2023-05-21T05:10:35.255Z,72.80
2023-05-21T05:13:03.251Z,72.80
2023-05-21T05:15:31.490Z,72.80
2023-05-21T05:17:59.547Z,72.80
2023-05-21T05:20:31.116Z,72.80
2023-05-21T05:22:59.144Z,72.80
2023-05-21T05:25:27.521Z,72.80
2023-05-21T05:27:55.464Z,72.90
2023-05-21T05:30:23.792Z,72.90
2023-05-21T05:32:51.950Z,72.90
2023-05-21T05:35:20.061Z,72.90
2023-05-21T05:37:49.499Z,72.90
2023-05-21T05:40:17.566Z,73.00
2023-05-21T05:42:46.451Z,72.80
2023-05-21T05:45:17.099Z,73.00
2023-05-21T05:47:45.491Z,72.90
2023-05-21T05:50:13.702Z,72.80
2023-05-21T05:52:42.211Z,72.90
2023-05-21T05:55:11.969Z,73.00
2023-05-21T05:57:39.955Z,72.90
2023-05-21T06:00:14.212Z,73.10
2023-05-21T06:02:45.451Z,73.10
2023-05-21T06:05:13.496Z,73.10
2023-05-21T06:07:41.922Z,73.10
2023-05-21T06:10:11.816Z,73.20
2023-05-21T06:12:39.876Z,73.20
2023-05-21T06:15:08.939Z,73.20
2023-05-21T06:17:37.533Z,73.30
2023-05-21T06:20:07.273Z,73.20
2023-05-21T06:22:36.889Z,73.20
2023-05-21T06:25:08.076Z,73.20
2023-05-21T06:27:38.715Z,73.30
2023-05-21T06:30:11.951Z,73.20
2023-05-21T06:32:41.027Z,73.20
2023-05-21T06:35:09.820Z,73.30
2023-05-21T06:37:37.784Z,73.30
2023-05-21T06:40:07.500Z,73.30
2023-05-21T06:42:36.974Z,73.40
2023-05-21T06:45:30.993Z,73.30
2023-05-21T06:48:04.872Z,73.20
2023-05-21T06:50:33.031Z,73.30
2023-05-21T06:53:01.741Z,73.40
2023-05-21T06:55:30.581Z,73.40
2023-05-21T06:58:16.662Z,74.30
2023-05-21T07:00:44.687Z,73.40
2023-05-21T07:03:13.113Z,73.30
2023-05-21T07:05:41.245Z,73.30
2023-05-21T07:08:11.373Z,73.40
2023-05-21T07:10:40.046Z,73.40
2023-05-21T07:13:08.522Z,73.50
2023-05-21T07:15:38.137Z,73.60
2023-05-21T07:18:06.454Z,73.60
2023-05-21T07:20:34.429Z,73.60
2023-05-21T07:23:05.954Z,73.70
2023-05-21T07:25:33.956Z,73.60
2023-05-21T07:28:02.037Z,73.70
2023-05-21T07:30:30.088Z,73.70
2023-05-21T07:33:00.258Z,73.80
2023-05-21T07:35:29.046Z,73.80
2023-05-21T07:37:57.843Z,73.70
2023-05-21T07:40:25.830Z,73.90
2023-05-21T07:42:53.944Z,73.80
2023-05-21T07:45:24.417Z,73.80
2023-05-21T07:47:52.480Z,73.90
2023-05-21T07:50:22.389Z,74.00
2023-05-21T07:52:50.363Z,74.00
2023-05-21T07:55:18.484Z,74.10
2023-05-21T07:57:47.497Z,74.10
2023-05-21T08:00:19.004Z,74.10
2023-05-21T08:02:53.392Z,74.00
2023-05-21T08:05:24.505Z,74.00
2023-05-21T08:07:52.738Z,74.00
2023-05-21T08:10:21.579Z,74.00
2023-05-21T08:12:52.764Z,73.90
2023-05-21T08:15:22.434Z,73.80
2023-05-21T08:17:50.762Z,73.70
2023-05-21T08:20:20.469Z,73.70
2023-05-21T08:22:50.597Z,74.00
2023-05-21T08:25:18.833Z,73.90
2023-05-21T08:27:46.968Z,73.90
2023-05-21T08:30:15.701Z,73.80
2023-05-21T08:32:43.865Z,73.70
2023-05-21T08:35:12.519Z,73.50
2023-05-21T08:37:50.808Z,73.50
2023-05-21T08:40:31.838Z,73.50
2023-05-21T08:42:59.943Z,73.50
2023-05-21T08:45:38.809Z,73.70
2023-05-21T08:48:07.652Z,73.70
2023-05-21T08:50:36.899Z,73.70
2023-05-21T08:53:24.060Z,73.80
2023-05-21T08:55:57.237Z,73.90
2023-05-21T08:58:30.808Z,73.80
2023-05-21T09:00:59.148Z,73.80
2023-05-21T09:03:29.214Z,73.60
2023-05-21T09:05:57.301Z,73.70
2023-05-21T09:08:30.811Z,73.70
2023-05-21T09:11:04.656Z,73.60
2023-05-21T09:13:39.080Z,73.50
2023-05-21T09:16:13.313Z,73.40
2023-05-21T09:18:41.417Z,73.50
2023-05-21T09:21:27.350Z,73.50
2023-05-21T09:24:08.377Z,73.50
2023-05-21T09:26:36.619Z,73.50
2023-05-21T09:29:07.044Z,73.50
2023-05-21T09:31:35.137Z,73.40
2023-05-21T09:34:03.168Z,72.80
2023-05-21T09:36:34.617Z,73.10
2023-05-21T09:39:03.337Z,73.00
2023-05-21T09:41:36.940Z,73.00
2023-05-21T09:44:06.037Z,72.70
2023-05-21T09:46:40.310Z,72.80
2023-05-21T09:49:08.887Z,72.90
2023-05-21T09:51:40.009Z,72.70
2023-05-21T09:54:07.971Z,72.70
2023-05-21T09:56:37.249Z,72.50
2023-05-21T09:59:05.267Z,72.40
2023-05-21T10:01:33.836Z,72.20
2023-05-21T10:04:08.498Z,72.30
2023-05-21T10:06:38.064Z,72.30
2023-05-21T10:09:08.319Z,72.30
2023-05-21T10:11:37.706Z,72.40
2023-05-21T10:14:06.910Z,71.80
2023-05-21T10:16:35.910Z,72.10
2023-05-21T10:19:04.788Z,72.30
2023-05-21T10:21:33.221Z,72.10
2023-05-21T10:24:01.371Z,72.20
2023-05-21T10:26:29.304Z,72.00
2023-05-21T10:29:00.180Z,72.20
2023-05-21T10:31:28.565Z,72.20
2023-05-21T10:33:56.694Z,71.90
2023-05-21T10:36:25.116Z,72.00
2023-05-21T10:38:53.123Z,72.00
2023-05-21T10:41:21.875Z,72.00
2023-05-21T10:43:52.972Z,71.90
2023-05-21T10:46:48.318Z,71.90
2023-05-21T10:49:35.078Z,71.90
2023-05-21T10:52:07.958Z,71.80
2023-05-21T10:55:20.733Z,71.90
2023-05-21T10:58:07.673Z,71.90
2023-05-21T11:00:36.110Z,71.80
2023-05-21T11:03:06.292Z,71.80
2023-05-21T11:05:42.004Z,71.60
2023-05-21T11:08:26.237Z,71.50
2023-05-21T11:10:55.393Z,71.50
2023-05-21T11:13:23.646Z,71.50
2023-05-21T11:16:08.512Z,71.40
2023-05-21T11:19:03.569Z,72.40
2023-05-21T11:21:32.347Z,71.40
2023-05-21T11:24:08.749Z,71.20
2023-05-21T11:27:08.816Z,71.10
2023-05-21T11:29:44.749Z,71.10
2023-05-21T11:32:15.120Z,71.10
2023-05-21T11:34:46.031Z,70.90
2023-05-21T11:37:29.297Z,71.00
2023-05-21T11:39:58.264Z,71.00
2023-05-21T11:42:30.306Z,70.90
2023-05-21T11:44:59.106Z,70.70
2023-05-21T11:47:27.269Z,70.80
2023-05-21T11:49:56.992Z,70.90
2023-05-21T11:52:25.310Z,70.80
2023-05-21T11:54:55.524Z,70.70
2023-05-21T11:57:30.442Z,70.60
2023-05-21T11:59:59.623Z,70.50
2023-05-21T12:02:28.473Z,70.30
2023-05-21T12:05:00.207Z,70.40
2023-05-21T12:07:29.710Z,70.40
2023-05-21T12:09:57.848Z,70.30
2023-05-21T12:12:29.372Z,70.20
2023-05-21T12:15:03.944Z,70.20
2023-05-21T12:17:32.748Z,70.10
2023-05-21T12:20:06.829Z,70.00
2023-05-21T12:22:34.857Z,70.00
2023-05-21T12:25:02.855Z,69.90
2023-05-21T12:27:31.928Z,69.80
2023-05-21T12:30:00.979Z,69.80
2023-05-21T12:32:29.629Z,69.60
2023-05-21T12:34:57.621Z,69.70
2023-05-21T12:37:31.204Z,69.60
2023-05-21T12:40:00.501Z,69.50
2023-05-21T12:42:29.962Z,69.40
2023-05-21T12:44:58.191Z,69.40
2023-05-21T12:47:26.750Z,69.30
2023-05-21T12:49:58.050Z,69.10
2023-05-21T12:52:27.919Z,69.10
2023-05-21T12:54:57.129Z,69.10
2023-05-21T12:57:25.999Z,69.10
2023-05-21T12:59:56.477Z,69.10
2023-05-21T13:02:25.862Z,69.10
2023-05-21T13:04:57.761Z,69.10
2023-05-21T13:07:27.285Z,69.10
2023-05-21T13:09:55.387Z,69.00
2023-05-21T13:12:23.894Z,69.00
2023-05-21T13:14:52.322Z,68.90
2023-05-21T13:17:20.372Z,68.90
2023-05-21T13:20:06.821Z,68.80
2023-05-21T13:22:36.705Z,68.90
2023-05-21T13:25:05.024Z,68.70
2023-05-21T13:27:32.992Z,68.70
2023-05-21T13:30:01.023Z,68.70
2023-05-21T13:32:29.081Z,68.60
2023-05-21T13:34:57.118Z,68.60
2023-05-21T13:37:25.143Z,68.50
2023-05-21T13:39:54.565Z,68.50
2023-05-21T13:42:22.604Z,68.50
2023-05-21T13:44:50.673Z,68.40
2023-05-21T13:47:18.672Z,68.30
2023-05-21T13:49:46.728Z,68.30
2023-05-21T13:52:14.733Z,68.30
2023-05-21T13:54:43.496Z,68.20
2023-05-21T13:57:12.815Z,68.20
2023-05-21T13:59:41.161Z,68.20
2023-05-21T14:02:09.786Z,68.20
2023-05-21T14:04:39.271Z,68.20
2023-05-21T14:07:07.735Z,68.10
2023-05-21T14:09:35.769Z,68.00
2023-05-21T14:12:06.402Z,67.20
2023-05-21T14:14:36.227Z,65.70
2023-05-21T14:17:04.281Z,64.60
2023-05-21T14:19:32.440Z,63.50
2023-05-21T14:22:00.705Z,62.70
2023-05-21T14:24:28.624Z,61.50
2023-05-21T14:26:56.613Z,60.90
2023-05-21T14:29:24.581Z,60.30
2023-05-21T14:31:54.020Z,60.00
2023-05-21T14:34:22.053Z,59.60
2023-05-21T14:36:50.012Z,59.40
2023-05-21T14:39:18.253Z,59.30
2023-05-21T14:41:46.264Z,59.30
2023-05-21T14:44:14.229Z,58.90
2023-05-21T14:46:42.317Z,59.10
2023-05-21T14:49:12.251Z,58.10
2023-05-21T14:51:40.701Z,57.60
2023-05-21T14:54:08.633Z,57.40
2023-05-21T14:56:36.607Z,56.60
2023-05-21T14:59:04.581Z,56.80
2023-05-21T15:01:32.644Z,56.60
2023-05-21T15:04:02.673Z,56.90
2023-05-21T15:06:32.307Z,56.70
2023-05-21T15:09:00.277Z,56.60
2023-05-21T15:11:28.218Z,56.30
2023-05-21T15:13:56.212Z,56.20
2023-05-21T15:16:24.317Z,56.40
2023-05-21T15:18:52.453Z,56.60
2023-05-21T15:21:21.037Z,56.30
2023-05-21T15:23:50.445Z,56.10
2023-05-21T15:26:18.406Z,55.90
2023-05-21T15:28:46.399Z,55.80
2023-05-21T15:31:14.329Z,55.80
2023-05-21T15:33:42.263Z,55.50
2023-05-21T15:36:10.514Z,55.60
2023-05-21T15:38:38.465Z,55.40
2023-05-21T15:41:07.897Z,55.30
2023-05-21T15:43:36.319Z,55.10
2023-05-21T15:46:04.836Z,55.20
2023-05-21T15:48:32.866Z,55.20
2023-05-21T15:51:00.823Z,55.10
2023-05-21T15:53:28.913Z,55.00
2023-05-21T15:55:57.093Z,54.90
2023-05-21T15:58:26.381Z,54.80
2023-05-21T16:00:54.347Z,54.80
2023-05-21T16:03:22.410Z,55.00
2023-05-21T16:05:50.520Z,55.00
2023-05-21T16:08:18.565Z,55.00
2023-05-21T16:10:46.554Z,55.90
2023-05-21T16:13:14.475Z,55.30
2023-05-21T16:15:43.772Z,55.20
2023-05-21T16:18:12.457Z,55.50
2023-05-21T16:20:40.496Z,56.60
2023-05-21T16:23:08.761Z,56.40
2023-05-21T16:25:37.049Z,56.90
2023-05-21T16:28:05.549Z,57.80
2023-05-21T16:30:33.612Z,58.50
2023-05-21T16:33:03.010Z,61.10
2023-05-21T16:35:31.852Z,60.50
2023-05-21T16:37:59.866Z,61.40
2023-05-21T16:40:27.805Z,61.30
2023-05-21T16:42:55.872Z,61.60
2023-05-21T16:45:23.853Z,62.00
2023-05-21T16:47:52.493Z,62.40
2023-05-21T16:50:21.874Z,62.80
2023-05-21T16:52:49.845Z,63.50
2023-05-21T16:55:17.806Z,63.80
2023-05-21T16:57:46.003Z,64.90
2023-05-21T17:00:14.991Z,64.10
2023-05-21T17:02:43.021Z,64.10
2023-05-21T17:05:11.068Z,64.10
2023-05-21T17:07:41.420Z,64.20
2023-05-21T17:10:10.501Z,64.50
2023-05-21T17:12:38.497Z,64.80
2023-05-21T17:15:07.719Z,64.80
2023-05-21T17:17:35.708Z,65.50
2023-05-21T17:20:04.311Z,65.10
2023-05-21T17:22:32.295Z,65.00
2023-05-21T17:25:01.996Z,64.80
2023-05-21T17:27:29.969Z,64.60
2023-05-21T17:29:58.253Z,64.60
2023-05-21T17:32:26.230Z,64.50
2023-05-21T17:34:54.177Z,64.30
2023-05-21T17:37:22.248Z,64.20
2023-05-21T17:39:50.254Z,63.90
2023-05-21T17:42:20.048Z,63.90
2023-05-21T17:44:48.022Z,64.20
2023-05-21T17:47:16.076Z,64.10
2023-05-21T17:49:44.043Z,64.40
2023-05-21T17:52:12.054Z,64.50
2023-05-21T17:54:40.050Z,63.90
2023-05-21T17:57:08.016Z,63.40
2023-05-21T17:59:40.235Z,63.10
2023-05-21T18:02:08.286Z,63.70
2023-05-21T18:04:36.363Z,63.50
2023-05-21T18:07:04.511Z,63.90
2023-05-21T18:09:32.498Z,64.30
2023-05-21T18:12:00.456Z,64.50
2023-05-21T18:14:28.534Z,64.60
2023-05-21T18:16:57.935Z,64.80
2023-05-21T18:19:26.140Z,65.20
2023-05-21T18:21:54.181Z,65.20
2023-05-21T18:24:22.167Z,65.40
2023-05-21T18:26:50.178Z,65.80
2023-05-21T18:29:18.125Z,65.80
2023-05-21T18:31:46.195Z,66.00
2023-05-21T18:34:17.234Z,66.20
2023-05-21T18:36:45.187Z,66.30
2023-05-21T18:39:13.146Z,66.50
2023-05-21T18:41:41.276Z,66.60
2023-05-21T18:44:09.395Z,66.70
2023-05-21T18:46:37.531Z,66.80
2023-05-21T18:49:06.186Z,66.90
2023-05-21T18:51:35.476Z,67.10
2023-05-21T18:54:03.448Z,67.10
2023-05-21T18:56:31.414Z,67.10
2023-05-21T18:58:59.380Z,67.20
2023-05-21T19:01:27.639Z,67.30
2023-05-21T19:03:55.725Z,67.50
2023-05-21T19:06:25.429Z,67.70
2023-05-21T19:08:54.799Z,67.70
2023-05-21T19:11:23.659Z,67.70
2023-05-21T19:13:51.757Z,67.70
2023-05-21T19:16:19.818Z,67.70
2023-05-21T19:18:47.827Z,67.60
2023-05-21T19:21:15.832Z,67.90
2023-05-21T19:23:52.582Z,68.00
2023-05-21T19:26:23.352Z,67.80
2023-05-21T19:28:53.436Z,68.00
2023-05-21T19:31:22.245Z,68.00
2023-05-21T19:33:50.643Z,68.10
2023-05-21T19:36:19.425Z,68.20
2023-05-21T19:38:48.602Z,68.30
2023-05-21T19:41:16.832Z,68.10
2023-05-21T19:43:46.322Z,68.10
2023-05-21T19:46:16.587Z,68.20
2023-05-21T19:48:47.153Z,68.30
2023-05-21T19:51:15.149Z,68.30
2023-05-21T19:53:43.555Z,68.30
2023-05-21T19:56:11.561Z,69.40
2023-05-21T19:58:39.600Z,68.40
2023-05-21T20:01:08.939Z,68.40
2023-05-21T20:03:37.049Z,68.40
2023-05-21T20:06:05.305Z,68.40
2023-05-21T20:08:33.402Z,68.60
2023-05-21T20:11:01.344Z,68.50
2023-05-21T20:13:29.311Z,68.60
2023-05-21T20:15:57.254Z,68.70
2023-05-21T20:18:26.557Z,68.90
2023-05-21T20:20:54.978Z,69.00
2023-05-21T20:23:22.959Z,69.10
2023-05-21T20:25:51.023Z,69.20
2023-05-21T20:28:20.579Z,69.30
2023-05-21T20:30:58.607Z,69.30
2023-05-21T20:33:28.459Z,69.30
2023-05-21T20:35:56.576Z,69.30
2023-05-21T20:38:25.772Z,69.30
2023-05-21T20:40:53.785Z,69.30
2023-05-21T20:43:21.883Z,69.20
2023-05-21T20:45:50.269Z,69.20
2023-05-21T20:48:18.864Z,69.20
2023-05-21T20:50:49.616Z,69.20
2023-05-21T20:53:18.627Z,69.30
2023-05-21T20:55:46.886Z,69.30
2023-05-21T20:58:14.834Z,69.30
2023-05-21T21:00:43.996Z,69.30
2023-05-21T21:03:12.070Z,69.20
2023-05-21T21:05:40.278Z,69.30
2023-05-21T21:08:09.688Z,69.30
2023-05-21T21:10:38.354Z,69.40
2023-05-21T21:13:07.237Z,69.30
2023-05-21T21:15:35.249Z,69.40
2023-05-21T21:18:03.515Z,69.20
2023-05-21T21:20:31.530Z,69.20
2023-05-21T21:22:59.493Z,69.30
2023-05-21T21:25:28.752Z,69.20
2023-05-21T21:27:56.682Z,69.20
2023-05-21T21:30:24.694Z,69.30
2023-05-21T21:32:52.770Z,69.20
2023-05-21T21:35:20.836Z,69.20
2023-05-21T21:37:48.801Z,69.30
2023-05-21T21:40:16.882Z,69.70
2023-05-21T21:42:46.374Z,69.60
2023-05-21T21:45:14.322Z,69.50
2023-05-21T21:47:42.335Z,69.40
2023-05-21T21:50:10.930Z,69.50
2023-05-21T21:52:39.917Z,69.60
2023-05-21T21:55:09.789Z,69.90
2023-05-21T21:57:37.784Z,70.20
2023-05-21T22:00:13.284Z,70.20
2023-05-21T22:02:41.280Z,70.60
2023-05-21T22:05:09.923Z,70.60
2023-05-21T22:07:38.907Z,70.70
2023-05-21T22:10:07.638Z,70.70
2023-05-21T22:12:35.733Z,70.70
2023-05-21T22:15:05.312Z,70.60
2023-05-21T22:17:35.033Z,70.50
2023-05-21T22:20:03.029Z,70.50
2023-05-21T22:22:30.992Z,70.40
2023-05-21T22:24:58.902Z,70.30
2023-05-21T22:27:26.992Z,70.20
2023-05-21T22:29:55.030Z,70.10
2023-05-21T22:32:23.002Z,70.10
2023-05-21T22:34:52.319Z,70.00
2023-05-21T22:37:21.175Z,69.90
2023-05-21T22:39:49.112Z,69.80
2023-05-21T22:42:17.212Z,69.70
2023-05-21T22:44:45.207Z,69.60
2023-05-21T22:47:13.967Z,69.50
2023-05-21T22:49:41.965Z,69.40
2023-05-21T22:52:11.269Z,69.30
2023-05-21T22:54:39.295Z,69.20
2023-05-21T22:57:07.310Z,69.30
2023-05-21T22:59:35.587Z,69.20
2023-05-21T23:02:03.684Z,69.20
2023-05-21T23:04:43.429Z,69.20
2023-05-21T23:07:13.790Z,69.10
2023-05-21T23:09:41.889Z,68.90
2023-05-21T23:12:11.109Z,68.90
2023-05-21T23:14:39.075Z,68.70
2023-05-21T23:17:07.453Z,68.70
2023-05-21T23:19:35.616Z,68.60
2023-05-21T23:22:03.836Z,68.50
2023-05-21T23:24:35.082Z,68.40
2023-05-21T23:27:03.575Z,68.30
2023-05-21T23:29:31.529Z,68.30
2023-05-21T23:32:00.928Z,68.30
2023-05-21T23:34:29.079Z,68.30
2023-05-21T23:36:59.414Z,68.30
2023-05-21T23:39:28.521Z,68.20
2023-05-21T23:41:57.841Z,68.20
2023-05-21T23:44:25.859Z,68.10
2023-05-21T23:46:53.838Z,68.00
2023-05-21T23:49:21.805Z,68.10
2023-05-21T23:51:51.006Z,68.00
2023-05-21T23:54:19.104Z,67.90
2023-05-21T23:56:47.487Z,67.80
2023-05-21T23:59:18.446Z,67.80
